Time;durP1;ratioP1;P1;durP2;ratioP2;P2;SDS_P1;SDS_P2;PMS_P1;PMS_P2;Temp;Humidity;BMP_temperature;BMP_pressure;BME280_temperature;BME280_humidity;BME280_pressure;Samples;Min_cycle;Max_cycle;Signal;HPM_P1;HPM_P2
2021/12/20 00:00:21;;;;;;;22.45;10.23;;;;;;;-145.45;100.00;62759.84;5229540;28;20019;-86
2021/12/20 00:02:58;;;;;;;20.05;8.05;;;;;;;-145.45;100.00;62759.84;5202558;28;20052;-86
2021/12/20 00:05:30;;;;;;;24.42;9.93;;;;;;;-145.45;100.00;62759.84;5218950;28;20417;-86
2021/12/20 00:08:01;;;;;;;23.20;9.43;;;;;;;-145.45;100.00;62759.84;5205456;28;20049;-86
2021/12/20 00:10:34;;;;;;;21.13;9.23;;;;;;;-145.45;100.00;62759.84;5224108;28;20031;-86
2021/12/20 00:13:05;;;;;;;16.83;8.68;;;;;;;-145.45;100.00;62759.84;5218516;28;20043;-86
2021/12/20 00:15:36;;;;;;;19.10;8.60;;;;;;;-145.45;100.00;62759.84;5224744;28;20558;-87
2021/12/20 00:18:08;;;;;;;18.65;8.30;;;;;;;-145.45;100.00;62759.84;5216774;28;20027;-87
2021/12/20 00:20:39;;;;;;;18.58;9.13;;;;;;;-145.45;100.00;62759.84;5217932;28;20081;-86
2021/12/20 00:23:10;;;;;;;16.20;9.38;;;;;;;-145.45;100.00;62759.84;5218226;28;20105;-86
2021/12/20 00:25:46;;;;;;;20.60;9.05;;;;;;;-145.45;100.00;62759.84;5219650;28;20436;-86
2021/12/20 00:28:18;;;;;;;20.63;10.43;;;;;;;-145.45;100.00;62759.84;5217341;28;20033;-86
2021/12/20 00:30:49;;;;;;;23.05;12.25;;;;;;;-145.45;100.00;62759.84;5217096;28;20035;-86
2021/12/20 00:33:21;;;;;;;19.23;10.23;;;;;;;-145.45;100.00;62759.84;5220292;28;20042;-86
2021/12/20 00:35:52;;;;;;;17.33;10.32;;;;;;;-145.45;100.00;62759.84;5204240;28;20026;-86
2021/12/20 00:41:13;;;;;;;23.42;9.77;;;;;;;-145.45;100.00;62759.84;5218837;28;20046;-86
2021/12/20 00:43:44;;;;;;;15.65;8.13;;;;;;;-145.45;100.00;62759.84;5216338;28;20030;-86
2021/12/20 00:46:16;;;;;;;23.58;9.25;;;;;;;-145.45;100.00;62759.84;5215940;28;20026;-86
2021/12/20 00:48:47;;;;;;;16.70;8.32;;;;;;;-145.45;100.00;62759.84;5216936;28;20038;-86
2021/12/20 00:51:18;;;;;;;25.08;8.20;;;;;;;-145.45;100.00;62759.84;5211351;28;34315;-87
2021/12/20 00:53:49;;;;;;;20.80;6.78;;;;;;;-145.45;100.00;62759.84;5211155;28;20035;-86
2021/12/20 00:56:21;;;;;;;20.23;7.10;;;;;;;-145.45;100.00;62759.84;5218617;28;20090;-86
2021/12/20 00:58:52;;;;;;;18.20;7.28;;;;;;;-145.45;100.00;62759.84;5219791;28;20053;-86
2021/12/20 01:01:23;;;;;;;21.67;7.63;;;;;;;-145.45;100.00;62759.84;5216937;28;39980;-87
2021/12/20 01:03:55;;;;;;;19.00;7.25;;;;;;;-145.45;100.00;62759.84;5200381;28;20030;-87
2021/12/20 01:06:26;;;;;;;18.70;4.20;;;;;;;-145.45;100.00;62759.84;5222274;28;20046;-86
2021/12/20 01:08:57;;;;;;;23.35;4.68;;;;;;;-145.45;100.00;62759.84;5229550;28;20048;-86
2021/12/20 01:11:29;;;;;;;18.02;4.53;;;;;;;-145.45;100.00;62759.84;5220928;28;20480;-86
2021/12/20 01:14:00;;;;;;;15.43;4.30;;;;;;;-145.45;100.00;62759.84;5226607;28;20023;-86
2021/12/20 01:16:33;;;;;;;13.63;4.80;;;;;;;-145.45;100.00;62759.84;5224964;28;20395;-86
2021/12/20 01:19:04;;;;;;;14.35;4.82;;;;;;;-145.45;100.00;62759.84;5226315;28;20344;-86
2021/12/20 01:21:35;;;;;;;14.18;4.13;;;;;;;-145.45;100.00;62759.84;5209266;28;20023;-86
2021/12/20 01:24:07;;;;;;;14.35;3.38;;;;;;;-145.45;100.00;62759.84;5223571;28;20026;-86
2021/12/20 01:26:38;;;;;;;10.80;3.60;;;;;;;-145.45;100.00;62759.84;5230158;28;20022;-87
2021/12/20 01:29:09;;;;;;;14.98;3.88;;;;;;;-145.45;100.00;62759.84;5226086;28;41956;-86
2021/12/20 01:31:41;;;;;;;15.15;3.30;;;;;;;-145.45;100.00;62759.84;5222858;28;20042;-86
2021/12/20 01:34:12;;;;;;;15.75;3.60;;;;;;;-145.45;100.00;62759.84;5228013;28;20038;-86
2021/12/20 01:36:43;;;;;;;16.30;3.45;;;;;;;-145.45;100.00;62759.84;5216267;28;20164;-86
2021/12/20 01:39:15;;;;;;;20.08;3.88;;;;;;;-145.45;100.00;62759.84;5220138;28;20394;-86
2021/12/20 01:41:46;;;;;;;14.15;3.58;;;;;;;-145.45;100.00;62759.84;5218593;28;20482;-86
2021/12/20 01:44:18;;;;;;;17.10;3.53;;;;;;;-145.45;100.00;62759.84;5218521;28;20022;-86
2021/12/20 01:46:50;;;;;;;14.55;3.30;;;;;;;-145.45;100.00;62759.84;5222544;28;20407;-86
2021/12/20 01:49:21;;;;;;;14.75;2.92;;;;;;;-145.45;100.00;62759.84;5219229;28;20031;-87
2021/12/20 01:54:31;;;;;;;16.02;3.45;;;;;;;-145.45;100.00;62759.84;5219031;28;20118;-87
2021/12/20 01:57:03;;;;;;;16.52;3.78;;;;;;;-145.45;100.00;62759.84;5219258;28;20081;-86
2021/12/20 01:59:39;;;;;;;16.90;3.15;;;;;;;-145.45;100.00;62759.84;5219942;28;20113;-86
2021/12/20 02:02:10;;;;;;;19.70;3.55;;;;;;;-145.45;100.00;62759.84;5214110;28;20038;-86
2021/12/20 02:04:48;;;;;;;19.85;2.97;;;;;;;-145.45;100.00;62759.84;5212331;28;20448;-86
2021/12/20 02:08:18;;;;;;;18.20;2.95;;;;;;;-145.45;100.00;62759.84;5223031;28;20418;-86
2021/12/20 02:10:12;;;;;;;17.08;3.55;;;;;;;-145.45;100.00;62759.84;5207583;28;20384;-86
2021/12/20 02:12:43;;;;;;;19.20;3.28;;;;;;;-145.45;100.00;62759.84;5202345;28;20042;-86
2021/12/20 02:15:15;;;;;;;17.20;2.92;;;;;;;-145.45;100.00;62759.84;5218683;28;20032;-87
2021/12/20 02:17:46;;;;;;;19.75;2.95;;;;;;;-145.45;100.00;62759.84;5224787;28;20494;-86
2021/12/20 02:20:26;;;;;;;15.73;3.97;;;;;;;-145.45;100.00;62759.84;5218414;28;20027;-86
2021/12/20 02:22:59;;;;;;;20.80;3.33;;;;;;;-145.45;100.00;62759.84;5215815;28;20022;-86
2021/12/20 02:25:32;;;;;;;24.45;3.50;;;;;;;-145.45;100.00;62759.84;5198546;28;20527;-86
2021/12/20 02:28:15;;;;;;;16.98;2.50;;;;;;;-145.45;100.00;62759.84;5216737;28;20031;-86
2021/12/20 02:36:54;;;;;;;19.42;2.95;;;;;;;-145.45;100.00;62759.84;5222484;28;20072;-86
2021/12/20 02:37:03;;;;;;;15.82;3.05;;;;;;;-145.45;100.00;62759.84;5214410;28;20038;-86
2021/12/20 02:39:34;;;;;;;21.83;3.42;;;;;;;-145.45;100.00;62759.84;5203708;28;20030;-86
2021/12/20 02:42:06;;;;;;;12.20;2.60;;;;;;;-145.45;100.00;62759.84;5222289;28;20080;-86
2021/12/20 02:44:37;;;;;;;18.35;2.90;;;;;;;-145.45;100.00;62759.84;5222367;28;20155;-85
2021/12/20 02:47:15;;;;;;;16.17;2.92;;;;;;;-145.45;100.00;62759.84;5220508;28;20062;-86
2021/12/20 02:49:46;;;;;;;15.48;2.42;;;;;;;-145.45;100.00;62759.84;5216258;28;20502;-86
2021/12/20 02:52:17;;;;;;;18.67;3.53;;;;;;;-145.45;100.00;62759.84;5223703;28;20027;-85
2021/12/20 02:54:48;;;;;;;14.35;2.65;;;;;;;-145.45;100.00;62759.84;5221101;28;20174;-86
2021/12/20 02:57:20;;;;;;;22.88;3.95;;;;;;;-145.45;100.00;62759.84;5217868;28;20032;-86
2021/12/20 02:59:51;;;;;;;29.98;4.30;;;;;;;-145.45;100.00;62759.84;5220599;28;20070;-86
2021/12/20 03:02:23;;;;;;;14.63;2.42;;;;;;;-145.45;100.00;62759.84;5218144;28;20037;-85
2021/12/20 03:04:54;;;;;;;17.02;2.90;;;;;;;-145.45;100.00;62759.84;5218694;28;20034;-86
2021/12/20 03:07:27;;;;;;;17.08;2.85;;;;;;;-145.45;100.00;62759.84;5204892;28;20037;-86
2021/12/20 03:10:02;;;;;;;18.88;3.10;;;;;;;-145.45;100.00;62759.84;5221899;28;20022;-86
2021/12/20 03:12:34;;;;;;;18.98;3.92;;;;;;;-145.45;100.00;62759.84;5217649;28;20066;-86
2021/12/20 03:15:12;;;;;;;22.02;3.35;;;;;;;-145.45;100.00;62759.84;5220223;28;20058;-86
2021/12/20 03:17:44;;;;;;;22.80;2.72;;;;;;;-145.45;100.00;62759.84;5214744;28;20034;-86
2021/12/20 03:20:15;;;;;;;18.33;4.07;;;;;;;-145.45;100.00;62759.84;5197314;28;20029;-86
2021/12/20 03:22:48;;;;;;;17.75;3.33;;;;;;;-145.45;100.00;62759.84;5204504;28;20066;-85
2021/12/20 03:25:21;;;;;;;21.15;3.70;;;;;;;-145.45;100.00;62759.84;5217722;28;20476;-85
2021/12/20 03:27:52;;;;;;;24.00;2.78;;;;;;;-145.45;100.00;62759.84;5220305;28;20070;-86
2021/12/20 03:30:25;;;;;;;20.75;3.83;;;;;;;-145.45;100.00;62759.84;5218890;28;20113;-85
2021/12/20 03:32:56;;;;;;;16.80;3.25;;;;;;;-145.45;100.00;62759.84;5214537;28;20030;-86
2021/12/20 03:35:27;;;;;;;22.75;3.08;;;;;;;-145.45;100.00;62759.84;5223563;28;20026;-85
2021/12/20 03:37:59;;;;;;;18.50;3.10;;;;;;;-145.45;100.00;62759.84;5204914;28;20034;-85
2021/12/20 03:40:30;;;;;;;16.40;2.75;;;;;;;-145.45;100.00;62759.84;5215428;28;20030;-86
2021/12/20 03:43:01;;;;;;;22.50;3.63;;;;;;;-145.45;100.00;62759.84;5226500;28;20030;-85
2021/12/20 03:45:33;;;;;;;22.42;2.95;;;;;;;-145.45;100.00;62759.84;5253013;28;20034;-85
2021/12/20 03:48:05;;;;;;;17.65;3.08;;;;;;;-145.45;100.00;62759.84;5251731;28;20042;-86
2021/12/20 03:50:36;;;;;;;16.38;3.13;;;;;;;-145.45;100.00;62759.84;5243336;28;20037;-86
2021/12/20 03:53:09;;;;;;;31.88;3.92;;;;;;;-145.45;100.00;62759.84;5247867;28;20040;-86
2021/12/20 03:55:40;;;;;;;17.10;3.35;;;;;;;-145.45;100.00;62759.84;5244099;28;20034;-86
2021/12/20 03:58:12;;;;;;;18.58;2.78;;;;;;;-145.45;100.00;62759.84;5230082;28;20034;-87
2021/12/20 04:00:43;;;;;;;25.17;3.58;;;;;;;-145.45;100.00;62759.84;5204378;28;20377;-86
2021/12/20 04:03:15;;;;;;;13.45;3.05;;;;;;;-145.45;100.00;62759.84;5225694;28;20033;-86
2021/12/20 04:05:47;;;;;;;24.58;3.40;;;;;;;-145.45;100.00;62759.84;5211207;28;20499;-86
2021/12/20 04:08:18;;;;;;;22.38;3.85;;;;;;;-145.45;100.00;62759.84;5210979;28;20033;-86
2021/12/20 04:10:49;;;;;;;23.90;3.25;;;;;;;-145.45;100.00;62759.84;5202709;28;20057;-87
2021/12/20 04:13:21;;;;;;;19.70;3.10;;;;;;;-145.45;100.00;62759.84;5216888;28;20159;-86
2021/12/20 04:15:53;;;;;;;19.52;3.70;;;;;;;-145.45;100.00;62759.84;5218136;28;20101;-87
2021/12/20 04:18:26;;;;;;;19.05;3.10;;;;;;;-145.45;100.00;62759.84;5219585;28;20873;-84
2021/12/20 04:20:57;;;;;;;19.20;3.63;;;;;;;-145.45;100.00;62759.84;5215456;28;20046;-85
2021/12/20 04:23:29;;;;;;;15.57;2.83;;;;;;;-145.45;100.00;62759.84;5217267;28;20399;-85
2021/12/20 04:26:00;;;;;;;24.40;3.70;;;;;;;-145.45;100.00;62759.84;5223625;28;20061;-85
2021/12/20 04:28:31;;;;;;;22.30;4.00;;;;;;;-145.45;100.00;62759.84;5206151;28;20033;-86
2021/12/20 04:31:03;;;;;;;25.70;4.07;;;;;;;-145.45;100.00;62759.84;5221616;28;20027;-86
2021/12/20 04:33:34;;;;;;;19.42;3.38;;;;;;;-145.45;100.00;62759.84;5219797;28;20485;-86
2021/12/20 04:36:05;;;;;;;17.15;2.75;;;;;;;-145.45;100.00;62759.84;5217019;28;20026;-86
2021/12/20 04:38:37;;;;;;;17.73;3.17;;;;;;;-145.45;100.00;62759.84;5220524;28;20097;-85
2021/12/20 04:41:08;;;;;;;23.42;3.42;;;;;;;-145.45;100.00;62759.84;5220944;28;20109;-86
2021/12/20 04:43:39;;;;;;;24.75;3.40;;;;;;;-145.45;100.00;62759.84;5217552;28;20491;-86
2021/12/20 04:46:11;;;;;;;20.90;3.00;;;;;;;-145.45;100.00;62759.84;5196267;28;20105;-86
2021/12/20 04:48:42;;;;;;;19.58;3.90;;;;;;;-145.45;100.00;62759.84;5199360;28;20077;-85
2021/12/20 04:51:13;;;;;;;24.05;3.60;;;;;;;-145.45;100.00;62759.84;5214167;28;20058;-85
2021/12/20 04:53:44;;;;;;;21.73;4.13;;;;;;;-145.45;100.00;62759.84;5216785;28;20081;-85
2021/12/20 04:56:16;;;;;;;18.92;2.97;;;;;;;-145.45;100.00;62759.84;5217511;28;20059;-85
2021/12/20 04:58:48;;;;;;;26.77;4.05;;;;;;;-145.45;100.00;62759.84;5217148;28;20077;-86
2021/12/20 05:01:19;;;;;;;24.15;4.57;;;;;;;-145.45;100.00;62759.84;5198142;28;20030;-85
2021/12/20 05:03:50;;;;;;;17.08;2.88;;;;;;;-145.45;100.00;62759.84;5217356;28;20033;-85
2021/12/20 05:06:22;;;;;;;22.70;3.65;;;;;;;-145.45;100.00;62759.84;5201756;28;20040;-86
2021/12/20 05:08:55;;;;;;;22.58;3.53;;;;;;;-145.45;100.00;62759.84;5218553;28;20023;-85
2021/12/20 05:11:29;;;;;;;23.20;3.58;;;;;;;-145.45;100.00;62759.84;5220885;28;20101;-85
2021/12/20 05:14:02;;;;;;;17.70;2.97;;;;;;;-145.45;100.00;62759.84;5214624;28;20136;-85
2021/12/20 05:16:33;;;;;;;22.13;3.53;;;;;;;-145.45;100.00;62759.84;5220711;28;20022;-86
2021/12/20 05:19:04;;;;;;;19.88;3.22;;;;;;;-145.45;100.00;62759.84;5220171;28;20045;-86
2021/12/20 05:21:35;;;;;;;18.80;3.42;;;;;;;-145.45;100.00;62759.84;5200911;28;20071;-86
2021/12/20 05:24:07;;;;;;;24.50;3.40;;;;;;;-145.45;100.00;62759.84;5211679;28;20306;-85
2021/12/20 05:26:38;;;;;;;16.77;2.70;;;;;;;-145.45;100.00;62759.84;5218528;28;20026;-86
2021/12/20 05:29:10;;;;;;;19.33;3.35;;;;;;;-145.45;100.00;62759.84;5213952;28;20109;-86
2021/12/20 05:31:42;;;;;;;22.77;4.13;;;;;;;-145.45;100.00;62759.84;5213675;28;20037;-86
2021/12/20 05:34:14;;;;;;;25.42;3.40;;;;;;;-145.45;100.00;62759.84;5212697;28;20022;-86
2021/12/20 05:36:45;;;;;;;20.85;3.45;;;;;;;-145.45;100.00;62759.84;5214996;28;20451;-86
2021/12/20 05:39:17;;;;;;;17.98;3.38;;;;;;;-145.45;100.00;62759.84;5199127;28;20047;-85
2021/12/20 05:41:48;;;;;;;15.70;3.25;;;;;;;-145.45;100.00;62759.84;5192887;28;20022;-85
2021/12/20 05:44:19;;;;;;;20.05;4.13;;;;;;;-145.45;100.00;62759.84;5218684;28;20079;-85
2021/12/20 05:46:52;;;;;;;15.77;3.97;;;;;;;-145.45;100.00;62759.84;5198564;28;37564;-86
2021/12/20 05:49:23;;;;;;;21.40;4.13;;;;;;;-145.45;100.00;62759.84;5217191;28;20053;-85
2021/12/20 05:51:55;;;;;;;25.58;4.10;;;;;;;-145.45;100.00;62759.84;5218928;28;20109;-86
2021/12/20 05:54:26;;;;;;;19.05;3.25;;;;;;;-145.45;100.00;62759.84;5218728;28;20125;-86
2021/12/20 05:56:58;;;;;;;22.58;3.88;;;;;;;-145.45;100.00;62759.84;5225819;28;20034;-85
2021/12/20 05:59:29;;;;;;;18.15;3.88;;;;;;;-145.45;100.00;62759.84;5222686;28;20033;-85
2021/12/20 06:02:01;;;;;;;24.23;4.10;;;;;;;-145.45;100.00;62759.84;5221074;28;20037;-86
2021/12/20 06:04:32;;;;;;;21.67;3.88;;;;;;;-145.45;100.00;62759.84;5216601;28;20533;-85
2021/12/20 06:07:04;;;;;;;25.48;4.15;;;;;;;-145.45;100.00;62759.84;5194764;28;20398;-85
2021/12/20 06:09:35;;;;;;;19.77;4.05;;;;;;;-145.45;100.00;62759.84;5212927;28;20030;-85
2021/12/20 06:12:07;;;;;;;24.45;4.45;;;;;;;-145.45;100.00;62759.84;5214766;28;20037;-85
2021/12/20 06:14:39;;;;;;;24.85;5.38;;;;;;;-145.45;100.00;62759.84;5217579;28;20031;-85
2021/12/20 06:17:10;;;;;;;23.27;3.83;;;;;;;-145.45;100.00;62759.84;5219082;28;20038;-85
2021/12/20 06:19:42;;;;;;;24.67;4.68;;;;;;;-145.45;100.00;62759.84;5218957;28;20085;-85
2021/12/20 06:22:13;;;;;;;27.05;5.00;;;;;;;-145.45;100.00;62759.84;5219434;28;20537;-85
2021/12/20 06:24:44;;;;;;;23.25;4.35;;;;;;;-145.45;100.00;62759.84;5219133;28;20033;-86
2021/12/20 06:27:16;;;;;;;23.30;4.60;;;;;;;-145.45;100.00;62759.84;5219287;28;20198;-86
2021/12/20 06:29:47;;;;;;;20.60;3.33;;;;;;;-145.45;100.00;62759.84;5219248;28;20026;-86
2021/12/20 06:32:18;;;;;;;22.58;4.10;;;;;;;-145.45;100.00;62759.84;5201801;28;20044;-86
2021/12/20 06:34:50;;;;;;;22.20;3.85;;;;;;;-145.45;100.00;62759.84;5218843;28;20027;-86
2021/12/20 06:37:22;;;;;;;18.23;3.50;;;;;;;-145.45;100.00;62759.84;5218591;28;20439;-85
2021/12/20 06:39:53;;;;;;;24.00;4.07;;;;;;;-145.45;100.00;62759.84;5219204;28;20032;-86
2021/12/20 06:42:25;;;;;;;20.17;3.83;;;;;;;-145.45;100.00;62759.84;5219304;28;20898;-86
2021/12/20 06:44:56;;;;;;;18.88;3.45;;;;;;;-145.45;100.00;62759.84;5209510;28;20435;-86
2021/12/20 06:47:30;;;;;;;21.17;3.60;;;;;;;-145.45;100.00;62759.84;5211008;28;20079;-85
2021/12/20 06:50:03;;;;;;;24.30;4.35;;;;;;;-145.45;100.00;62759.84;5218266;28;34363;-86
2021/12/20 06:52:34;;;;;;;21.38;3.47;;;;;;;-145.45;100.00;62759.84;5202506;28;20464;-86
2021/12/20 06:55:06;;;;;;;26.25;4.15;;;;;;;-145.45;100.00;62759.84;5219001;28;20026;-86
2021/12/20 06:57:39;;;;;;;24.63;4.32;;;;;;;-145.45;100.00;62759.84;5218375;28;20050;-86
2021/12/20 07:00:10;;;;;;;25.98;3.97;;;;;;;-145.45;100.00;62759.84;5217981;28;20014;-86
2021/12/20 07:02:42;;;;;;;21.67;3.72;;;;;;;-145.45;100.00;62759.84;5218740;28;20041;-86
2021/12/20 07:05:14;;;;;;;24.27;3.53;;;;;;;-145.45;100.00;62759.84;5217676;28;20035;-85
2021/12/20 07:07:45;;;;;;;23.10;4.75;;;;;;;-145.45;100.00;62759.84;5243582;28;20022;-86
2021/12/20 07:10:17;;;;;;;20.73;3.67;;;;;;;-145.45;100.00;62759.84;5243593;28;20022;-85
2021/12/20 07:12:51;;;;;;;20.65;3.88;;;;;;;-145.45;100.00;62759.84;5242984;28;20022;-86
2021/12/20 07:15:24;;;;;;;28.85;4.72;;;;;;;-145.45;100.00;62759.84;5243430;28;20010;-85
2021/12/20 07:17:56;;;;;;;18.33;3.53;;;;;;;-145.45;100.00;62759.84;5243650;28;20053;-85
2021/12/20 07:20:27;;;;;;;22.65;4.22;;;;;;;-145.45;100.00;62759.84;5219778;28;20018;-85
2021/12/20 07:22:59;;;;;;;20.30;4.32;;;;;;;-145.45;100.00;62759.84;5202891;28;20034;-85
2021/12/20 07:25:30;;;;;;;25.17;4.20;;;;;;;-145.45;100.00;62759.84;5222421;28;20022;-86
2021/12/20 07:28:01;;;;;;;22.55;4.15;;;;;;;-145.45;100.00;62759.84;5207794;28;20049;-86
2021/12/20 07:30:33;;;;;;;19.30;3.60;;;;;;;-145.45;100.00;62759.84;5195097;28;20019;-86
2021/12/20 07:33:05;;;;;;;16.23;3.17;;;;;;;-145.45;100.00;62759.84;5216150;28;20189;-86
2021/12/20 07:35:37;;;;;;;30.58;4.88;;;;;;;-145.45;100.00;62759.84;5203565;28;20073;-87
2021/12/20 07:38:12;;;;;;;25.95;4.10;;;;;;;-145.45;100.00;62759.84;5213528;28;20026;-86
2021/12/20 07:40:48;;;;;;;22.27;4.07;;;;;;;-145.45;100.00;62759.84;5221989;28;20022;-85
2021/12/20 07:43:20;;;;;;;19.58;4.30;;;;;;;-145.45;100.00;62759.84;5203892;28;20061;-85
2021/12/20 07:45:51;;;;;;;19.25;3.17;;;;;;;-145.45;100.00;62759.84;5222289;28;20022;-85
2021/12/20 07:48:22;;;;;;;20.08;3.88;;;;;;;-145.45;100.00;62759.84;5221605;28;20165;-85
2021/12/20 07:50:54;;;;;;;16.70;4.43;;;;;;;-145.45;100.00;62759.84;5213845;28;20121;-85
2021/12/20 07:53:26;;;;;;;25.25;4.22;;;;;;;-145.45;100.00;62759.84;5200819;28;20061;-85
2021/12/20 07:55:58;;;;;;;20.52;4.30;;;;;;;-145.45;100.00;62759.84;5222355;28;20076;-85
2021/12/20 07:58:29;;;;;;;26.30;5.57;;;;;;;-145.45;100.00;62759.84;5221500;28;20422;-85
2021/12/20 08:01:04;;;;;;;17.23;4.60;;;;;;;-145.45;100.00;62759.84;5222253;28;20023;-86
2021/12/20 08:03:35;;;;;;;21.02;3.60;;;;;;;-145.45;100.00;62759.84;5220816;28;20080;-86
2021/12/20 08:06:08;;;;;;;22.75;4.25;;;;;;;-145.45;100.00;62759.84;5202062;28;20065;-84
2021/12/20 08:08:40;;;;;;;19.67;4.50;;;;;;;-145.45;100.00;62759.84;5211673;28;20022;-85
2021/12/20 08:11:12;;;;;;;19.42;4.50;;;;;;;-145.45;100.00;62759.84;5221469;28;20046;-85
2021/12/20 08:13:46;;;;;;;18.73;3.72;;;;;;;-145.45;100.00;62759.84;5229639;28;20049;-85
2021/12/20 08:16:19;;;;;;;28.08;3.90;;;;;;;-145.45;100.00;62759.84;5226504;28;20329;-85
2021/12/20 08:18:50;;;;;;;22.48;4.72;;;;;;;-145.45;100.00;62759.84;5215154;28;20089;-87
2021/12/20 08:21:22;;;;;;;16.05;4.50;;;;;;;-145.45;100.00;62759.84;5202691;28;20026;-87
2021/12/20 08:23:53;;;;;;;25.80;5.00;;;;;;;-145.45;100.00;62759.84;5222334;28;20029;-86
2021/12/20 08:26:26;;;;;;;20.65;3.80;;;;;;;-145.45;100.00;62759.84;5205218;28;20026;-86
2021/12/20 08:28:57;;;;;;;27.50;5.18;;;;;;;-145.45;100.00;62759.84;5221685;28;20022;-86
2021/12/20 08:31:29;;;;;;;20.52;4.53;;;;;;;-145.45;100.00;62759.84;5221724;28;20514;-86
2021/12/20 08:34:00;;;;;;;21.15;3.92;;;;;;;-145.45;100.00;62759.84;5215564;28;20049;-85
2021/12/20 08:36:31;;;;;;;17.10;4.28;;;;;;;-145.45;100.00;62759.84;5221876;28;20108;-85
2021/12/20 08:39:03;;;;;;;22.15;4.55;;;;;;;-145.45;100.00;62759.84;5221288;28;23076;-85
2021/12/20 08:41:34;;;;;;;19.85;4.20;;;;;;;-145.45;100.00;62759.84;5202959;28;20033;-85
2021/12/20 08:44:05;;;;;;;14.80;3.47;;;;;;;-145.45;100.00;62759.84;5194246;28;20023;-86
2021/12/20 08:46:37;;;;;;;18.40;3.78;;;;;;;-145.45;100.00;62759.84;5200931;28;20031;-85
2021/12/20 08:49:08;;;;;;;23.45;4.68;;;;;;;-145.45;100.00;62759.84;5199202;28;20051;-86
2021/12/20 08:51:40;;;;;;;18.38;3.55;;;;;;;-145.45;100.00;62759.84;5201007;28;20134;-85
2021/12/20 08:54:13;;;;;;;14.75;3.83;;;;;;;-145.45;100.00;62759.84;5201141;28;20030;-86
2021/12/20 08:56:45;;;;;;;18.77;3.85;;;;;;;-145.45;100.00;62759.84;5200609;28;20470;-85
2021/12/20 08:59:16;;;;;;;18.13;3.47;;;;;;;-145.45;100.00;62759.84;5201122;28;20118;-85
2021/12/20 09:01:48;;;;;;;21.90;4.10;;;;;;;-145.45;100.00;62759.84;5206417;28;20026;-84
2021/12/20 09:04:19;;;;;;;15.65;3.63;;;;;;;-145.45;100.00;62759.84;5194645;28;20041;-84
2021/12/20 09:06:50;;;;;;;17.58;3.47;;;;;;;-145.45;100.00;62759.84;5200997;28;20451;-85
2021/12/20 09:09:22;;;;;;;21.23;3.78;;;;;;;-145.45;100.00;62759.84;5221341;28;20023;-84
2021/12/20 09:11:53;;;;;;;13.93;3.67;;;;;;;-145.45;100.00;62759.84;5220992;28;20511;-85
2021/12/20 09:14:25;;;;;;;19.40;4.40;;;;;;;-145.45;100.00;62759.84;5220528;28;20026;-85
2021/12/20 09:16:56;;;;;;;19.75;4.00;;;;;;;-145.45;100.00;62759.84;5216874;28;20019;-85
2021/12/20 09:19:28;;;;;;;18.00;3.13;;;;;;;-145.45;100.00;62759.84;5218605;28;20046;-84
2021/12/20 09:22:00;;;;;;;18.05;3.17;;;;;;;-145.45;100.00;62759.84;5201023;28;20065;-84
2021/12/20 09:24:35;;;;;;;17.65;3.65;;;;;;;-145.45;100.00;62759.84;5202294;28;20015;-84
2021/12/20 09:27:08;;;;;;;22.80;3.30;;;;;;;-145.45;100.00;62759.84;5219485;28;42774;-84
2021/12/20 09:29:39;;;;;;;13.00;2.80;;;;;;;-145.45;100.00;62759.84;5202867;28;20428;-84
2021/12/20 09:32:11;;;;;;;14.20;2.70;;;;;;;-145.45;100.00;62759.84;5215885;28;20035;-84
2021/12/20 09:34:42;;;;;;;18.45;3.22;;;;;;;-145.45;100.00;62759.84;5199556;28;20061;-84
2021/12/20 09:37:13;;;;;;;14.18;2.45;;;;;;;-145.45;100.00;62759.84;5200435;28;20019;-84
2021/12/20 09:39:49;;;;;;;14.18;2.97;;;;;;;-145.45;100.00;62759.84;5199780;28;20070;-84
2021/12/20 09:42:22;;;;;;;14.30;3.90;;;;;;;-145.45;100.00;62759.84;5199924;28;20118;-84
2021/12/20 09:44:54;;;;;;;11.15;3.10;;;;;;;-145.45;100.00;62759.84;5198729;28;20023;-84
2021/12/20 09:47:25;;;;;;;15.82;3.88;;;;;;;-145.45;100.00;62759.84;5200040;28;20041;-84
2021/12/20 09:49:58;;;;;;;17.38;3.53;;;;;;;-145.45;100.00;62759.84;5199642;28;20023;-84
2021/12/20 09:52:29;;;;;;;22.73;3.58;;;;;;;-145.45;100.00;62759.84;5200603;28;20037;-83
2021/12/20 09:55:03;;;;;;;19.52;3.80;;;;;;;-145.45;100.00;62759.84;5199461;28;20027;-84
2021/12/20 09:57:37;;;;;;;19.88;4.43;;;;;;;-145.45;100.00;62759.84;5200150;28;20019;-84
2021/12/20 10:00:10;;;;;;;15.45;3.25;;;;;;;-145.45;100.00;62759.84;5198114;28;20161;-85
2021/12/20 10:02:43;;;;;;;17.20;3.55;;;;;;;-145.45;100.00;62759.84;5199424;28;20173;-84
2021/12/20 10:05:17;;;;;;;13.38;3.03;;;;;;;-145.45;100.00;62759.84;5200831;28;20033;-85
2021/12/20 10:07:53;;;;;;;17.25;3.35;;;;;;;-145.45;100.00;62759.84;5220569;28;20030;-85
2021/12/20 10:10:43;;;;;;;27.20;3.85;;;;;;;-145.45;100.00;62759.84;5220541;28;20030;-85
2021/12/20 10:13:25;;;;;;;26.00;4.18;;;;;;;-145.45;100.00;62759.84;5202437;28;20456;-84
2021/12/20 10:15:58;;;;;;;19.42;4.00;;;;;;;-145.45;100.00;62759.84;5220118;28;20077;-84
2021/12/20 10:18:34;;;;;;;17.98;3.90;;;;;;;-145.45;100.00;62759.84;5220307;28;20040;-85
2021/12/20 10:21:05;;;;;;;18.13;4.63;;;;;;;-145.45;100.00;62759.84;5219567;28;20132;-85
2021/12/20 10:23:44;;;;;;;22.95;3.65;;;;;;;-145.45;100.00;62759.84;5202517;28;20383;-85
2021/12/20 10:26:20;;;;;;;17.83;3.33;;;;;;;-145.45;100.00;62759.84;5217846;28;20033;-84
2021/12/20 10:28:53;;;;;;;15.97;3.10;;;;;;;-145.45;100.00;62759.84;5220062;28;20116;-84
2021/12/20 10:31:27;;;;;;;9.63;2.67;;;;;;;-145.45;100.00;62759.84;5219724;28;20274;-85
2021/12/20 10:34:01;;;;;;;14.82;3.72;;;;;;;-145.45;100.00;62759.84;5219866;28;20515;-84
2021/12/20 10:36:33;;;;;;;17.35;3.45;;;;;;;-145.45;100.00;62759.84;5201704;28;20019;-84
2021/12/20 10:39:06;;;;;;;16.77;3.33;;;;;;;-145.45;100.00;62759.84;5201388;28;20022;-84
2021/12/20 10:41:39;;;;;;;16.40;3.17;;;;;;;-145.45;100.00;62759.84;5219693;28;20023;-85
2021/12/20 10:44:24;;;;;;;17.05;3.42;;;;;;;-145.45;100.00;62759.84;5220032;28;20015;-84
2021/12/20 10:46:58;;;;;;;18.15;3.70;;;;;;;-145.45;100.00;62759.84;5219486;28;20023;-84
2021/12/20 10:49:30;;;;;;;16.88;3.63;;;;;;;-145.45;100.00;62759.84;5219274;28;20101;-84
2021/12/20 10:52:02;;;;;;;21.95;3.33;;;;;;;-145.45;100.00;62759.84;5219625;28;20038;-85
2021/12/20 10:54:42;;;;;;;19.83;3.72;;;;;;;-145.45;100.00;62759.84;5208065;28;20023;-84
2021/12/20 10:57:25;;;;;;;18.27;3.97;;;;;;;-145.45;100.00;62759.84;5200960;28;20053;-84
2021/12/20 11:00:16;;;;;;;17.25;3.17;;;;;;;-145.45;100.00;62759.84;5202485;28;20394;-85
2021/12/20 11:09:05;;;;;;;14.77;3.53;;;;;;;-145.45;100.00;62759.84;5160196;28;20024;-84
2021/12/20 11:11:40;;;;;;;18.08;3.08;;;;;;;-145.45;100.00;62759.84;5183135;28;20087;-84
2021/12/20 11:14:12;;;;;;;22.92;3.75;;;;;;;-145.45;100.00;62759.84;5209510;28;20140;-85
2021/12/20 11:16:49;;;;;;;16.15;3.13;;;;;;;-145.45;100.00;62759.84;5206738;28;20134;-85
2021/12/20 11:19:22;;;;;;;21.35;3.65;;;;;;;-145.45;100.00;62759.84;5187584;28;20088;-85
2021/12/20 11:22:04;;;;;;;18.90;3.25;;;;;;;-145.45;100.00;62759.84;5204215;28;20502;-85
2021/12/20 11:24:40;;;;;;;17.52;3.22;;;;;;;-145.45;100.00;62759.84;5204965;28;20022;-85
2021/12/20 11:27:17;;;;;;;16.30;3.88;;;;;;;-145.45;100.00;62759.84;5204120;28;20408;-85
2021/12/20 11:29:52;;;;;;;14.73;2.97;;;;;;;-145.45;100.00;62759.84;5202465;28;20389;-84
2021/12/20 11:32:24;;;;;;;16.55;3.55;;;;;;;-145.45;100.00;62759.84;5205292;28;20101;-84
2021/12/20 11:34:56;;;;;;;15.90;3.35;;;;;;;-145.45;100.00;62759.84;5223097;28;20038;-84
2021/12/20 11:37:28;;;;;;;16.55;3.67;;;;;;;-145.45;100.00;62759.84;5223026;28;20383;-84
2021/12/20 11:40:02;;;;;;;17.38;4.15;;;;;;;-145.45;100.00;62759.84;5205153;28;20022;-84